sensor_id;sensor_type;location;lat;lon;timestamp;P1;durP1;ratioP1;P2;durP2;ratioP2
72156;SDS011;60035;52.122;5.406;2023-06-22T00:01:18;6.25;;;3.33;;
72156;SDS011;60035;52.122;5.406;2023-06-22T00:03:46;6.95;;;3.30;;
72156;SDS011;60035;52.122;5.406;2023-06-22T00:06:13;7.20;;;3.33;;
72156;SDS011;60035;52.122;5.406;2023-06-22T00:08:39;8.15;;;3.38;;
72156;SDS011;60035;52.122;5.406;2023-06-22T00:11:06;7.35;;;3.30;;
72156;SDS011;60035;52.122;5.406;2023-06-22T00:13:33;6.85;;;2.80;;
72156;SDS011;60035;52.122;5.406;2023-06-22T00:15:59;6.22;;;3.20;;
72156;SDS011;60035;52.122;5.406;2023-06-22T00:18:26;7.43;;;3.17;;
72156;SDS011;60035;52.122;5.406;2023-06-22T00:20:55;7.53;;;3.20;;
72156;SDS011;60035;52.122;5.406;2023-06-22T00:23:25;7.32;;;4.35;;
72156;SDS011;60035;52.122;5.406;2023-06-22T00:25:52;6.55;;;3.50;;
72156;SDS011;60035;52.122;5.406;2023-06-22T00:28:18;8.95;;;3.45;;
72156;SDS011;60035;52.122;5.406;2023-06-22T00:30:45;7.03;;;3.50;;
72156;SDS011;60035;52.122;5.406;2023-06-22T00:33:12;6.32;;;3.05;;
72156;SDS011;60035;52.122;5.406;2023-06-22T00:35:38;8.13;;;3.88;;
72156;SDS011;60035;52.122;5.406;2023-06-22T00:38:07;11.02;;;3.80;;
72156;SDS011;60035;52.122;5.406;2023-06-22T00:40:34;8.05;;;4.03;;
72156;SDS011;60035;52.122;5.406;2023-06-22T00:43:01;8.60;;;3.70;;
72156;SDS011;60035;52.122;5.406;2023-06-22T00:45:28;7.82;;;4.03;;
72156;SDS011;60035;52.122;5.406;2023-06-22T00:47:58;8.60;;;3.97;;
72156;SDS011;60035;52.122;5.406;2023-06-22T00:50:26;8.30;;;4.10;;
72156;SDS011;60035;52.122;5.406;2023-06-22T00:52:55;7.00;;;4.00;;
72156;SDS011;60035;52.122;5.406;2023-06-22T00:55:25;7.65;;;3.70;;
72156;SDS011;60035;52.122;5.406;2023-06-22T00:57:55;8.18;;;3.22;;
72156;SDS011;60035;52.122;5.406;2023-06-22T01:00:23;6.75;;;3.35;;
72156;SDS011;60035;52.122;5.406;2023-06-22T01:02:51;6.40;;;3.33;;
72156;SDS011;60035;52.122;5.406;2023-06-22T01:16:33;7.50;;;2.55;;
72156;SDS011;60035;52.122;5.406;2023-06-22T01:19:05;8.57;;;2.90;;
72156;SDS011;60035;52.122;5.406;2023-06-22T01:21:45;6.72;;;2.83;;
72156;SDS011;60035;52.122;5.406;2023-06-22T01:30:02;6.45;;;3.25;;
72156;SDS011;60035;52.122;5.406;2023-06-22T01:32:34;7.22;;;2.80;;
72156;SDS011;60035;52.122;5.406;2023-06-22T01:35:04;6.50;;;2.97;;
72156;SDS011;60035;52.122;5.406;2023-06-22T01:37:33;7.05;;;3.03;;
72156;SDS011;60035;52.122;5.406;2023-06-22T01:40:02;8.07;;;4.38;;
72156;SDS011;60035;52.122;5.406;2023-06-22T01:42:31;8.65;;;3.42;;
72156;SDS011;60035;52.122;5.406;2023-06-22T01:44:59;9.45;;;3.05;;
72156;SDS011;60035;52.122;5.406;2023-06-22T01:47:26;6.82;;;3.75;;
72156;SDS011;60035;52.122;5.406;2023-06-22T01:49:54;8.70;;;4.13;;
72156;SDS011;60035;52.122;5.406;2023-06-22T01:52:21;6.57;;;3.60;;
72156;SDS011;60035;52.122;5.406;2023-06-22T01:54:48;8.02;;;3.90;;
72156;SDS011;60035;52.122;5.406;2023-06-22T01:57:14;7.70;;;4.38;;
72156;SDS011;60035;52.122;5.406;2023-06-22T02:00:03;8.63;;;4.57;;
72156;SDS011;60035;52.122;5.406;2023-06-22T02:02:33;8.55;;;3.90;;
72156;SDS011;60035;52.122;5.406;2023-06-22T02:05:25;8.05;;;3.80;;
72156;SDS011;60035;52.122;5.406;2023-06-22T02:08:02;8.73;;;3.60;;
72156;SDS011;60035;52.122;5.406;2023-06-22T02:10:44;7.72;;;3.47;;
72156;SDS011;60035;52.122;5.406;2023-06-22T02:13:12;7.53;;;3.65;;
72156;SDS011;60035;52.122;5.406;2023-06-22T02:15:40;7.95;;;3.90;;
72156;SDS011;60035;52.122;5.406;2023-06-22T02:18:07;7.18;;;3.55;;
72156;SDS011;60035;52.122;5.406;2023-06-22T02:20:36;7.05;;;3.45;;
72156;SDS011;60035;52.122;5.406;2023-06-22T02:23:03;6.65;;;3.53;;
72156;SDS011;60035;52.122;5.406;2023-06-22T02:25:32;8.25;;;3.90;;
72156;SDS011;60035;52.122;5.406;2023-06-22T02:27:58;7.53;;;3.72;;
72156;SDS011;60035;52.122;5.406;2023-06-22T02:30:25;7.93;;;3.72;;
72156;SDS011;60035;52.122;5.406;2023-06-22T02:32:52;7.47;;;3.58;;
72156;SDS011;60035;52.122;5.406;2023-06-22T02:35:26;8.65;;;3.55;;
72156;SDS011;60035;52.122;5.406;2023-06-22T02:37:53;7.95;;;4.25;;
72156;SDS011;60035;52.122;5.406;2023-06-22T02:40:20;8.07;;;3.60;;
72156;SDS011;60035;52.122;5.406;2023-06-22T02:42:47;10.93;;;4.03;;
72156;SDS011;60035;52.122;5.406;2023-06-22T02:45:13;7.82;;;3.88;;
72156;SDS011;60035;52.122;5.406;2023-06-22T02:47:40;8.85;;;3.45;;
72156;SDS011;60035;52.122;5.406;2023-06-22T02:50:07;6.82;;;3.72;;
72156;SDS011;60035;52.122;5.406;2023-06-22T02:52:33;8.10;;;4.03;;
72156;SDS011;60035;52.122;5.406;2023-06-22T02:55:00;7.13;;;3.13;;
72156;SDS011;60035;52.122;5.406;2023-06-22T02:57:26;7.38;;;3.50;;
72156;SDS011;60035;52.122;5.406;2023-06-22T02:59:53;7.00;;;3.40;;
72156;SDS011;60035;52.122;5.406;2023-06-22T03:02:21;7.43;;;3.70;;
72156;SDS011;60035;52.122;5.406;2023-06-22T03:04:48;9.63;;;3.47;;
72156;SDS011;60035;52.122;5.406;2023-06-22T03:07:15;8.02;;;3.75;;
72156;SDS011;60035;52.122;5.406;2023-06-22T03:09:44;7.10;;;3.40;;
72156;SDS011;60035;52.122;5.406;2023-06-22T03:12:10;6.95;;;3.35;;
72156;SDS011;60035;52.122;5.406;2023-06-22T03:14:37;7.47;;;3.38;;
72156;SDS011;60035;52.122;5.406;2023-06-22T03:17:05;7.38;;;3.65;;
72156;SDS011;60035;52.122;5.406;2023-06-22T03:19:32;7.82;;;3.50;;
72156;SDS011;60035;52.122;5.406;2023-06-22T03:21:59;7.72;;;3.90;;
72156;SDS011;60035;52.122;5.406;2023-06-22T03:24:26;9.50;;;4.80;;
72156;SDS011;60035;52.122;5.406;2023-06-22T03:26:55;8.98;;;4.78;;
72156;SDS011;60035;52.122;5.406;2023-06-22T03:29:23;8.98;;;5.30;;
72156;SDS011;60035;52.122;5.406;2023-06-22T03:31:50;9.73;;;4.55;;
72156;SDS011;60035;52.122;5.406;2023-06-22T03:34:16;14.05;;;4.40;;
72156;SDS011;60035;52.122;5.406;2023-06-22T03:36:43;10.20;;;5.15;;
72156;SDS011;60035;52.122;5.406;2023-06-22T03:39:11;10.35;;;4.60;;
72156;SDS011;60035;52.122;5.406;2023-06-22T03:41:38;8.80;;;4.72;;
72156;SDS011;60035;52.122;5.406;2023-06-22T03:44:05;10.90;;;3.75;;
72156;SDS011;60035;52.122;5.406;2023-06-22T03:46:31;10.93;;;5.55;;
72156;SDS011;60035;52.122;5.406;2023-06-22T03:48:58;11.65;;;5.15;;
72156;SDS011;60035;52.122;5.406;2023-06-22T03:51:24;10.57;;;4.82;;
72156;SDS011;60035;52.122;5.406;2023-06-22T03:53:51;9.73;;;4.75;;
72156;SDS011;60035;52.122;5.406;2023-06-22T03:56:17;7.82;;;3.85;;
72156;SDS011;60035;52.122;5.406;2023-06-22T03:58:46;8.57;;;4.22;;
72156;SDS011;60035;52.122;5.406;2023-06-22T04:01:13;7.90;;;3.97;;
72156;SDS011;60035;52.122;5.406;2023-06-22T04:03:40;8.35;;;4.28;;
72156;SDS011;60035;52.122;5.406;2023-06-22T04:06:07;10.88;;;5.80;;
72156;SDS011;60035;52.122;5.406;2023-06-22T04:08:34;9.02;;;5.10;;
72156;SDS011;60035;52.122;5.406;2023-06-22T04:11:00;9.95;;;5.53;;
72156;SDS011;60035;52.122;5.406;2023-06-22T04:13:27;11.63;;;5.40;;
72156;SDS011;60035;52.122;5.406;2023-06-22T04:15:53;12.77;;;5.53;;
72156;SDS011;60035;52.122;5.406;2023-06-22T04:18:20;10.52;;;5.90;;
72156;SDS011;60035;52.122;5.406;2023-06-22T04:20:46;11.30;;;6.13;;
72156;SDS011;60035;52.122;5.406;2023-06-22T04:23:13;11.40;;;5.68;;
72156;SDS011;60035;52.122;5.406;2023-06-22T04:25:40;12.73;;;6.72;;
72156;SDS011;60035;52.122;5.406;2023-06-22T04:28:06;13.48;;;6.80;;
72156;SDS011;60035;52.122;5.406;2023-06-22T04:30:33;12.38;;;6.70;;
72156;SDS011;60035;52.122;5.406;2023-06-22T04:32:59;11.13;;;5.93;;
72156;SDS011;60035;52.122;5.406;2023-06-22T04:35:26;11.45;;;5.97;;
72156;SDS011;60035;52.122;5.406;2023-06-22T04:37:55;12.13;;;5.55;;
72156;SDS011;60035;52.122;5.406;2023-06-22T04:40:24;11.20;;;6.40;;
72156;SDS011;60035;52.122;5.406;2023-06-22T04:42:50;14.82;;;8.60;;
72156;SDS011;60035;52.122;5.406;2023-06-22T04:45:20;16.85;;;8.00;;
72156;SDS011;60035;52.122;5.406;2023-06-22T04:47:47;14.65;;;9.02;;
72156;SDS011;60035;52.122;5.406;2023-06-22T04:50:14;17.63;;;9.15;;
72156;SDS011;60035;52.122;5.406;2023-06-22T04:52:41;18.85;;;10.07;;
72156;SDS011;60035;52.122;5.406;2023-06-22T04:55:07;17.58;;;9.70;;
72156;SDS011;60035;52.122;5.406;2023-06-22T04:57:35;16.88;;;9.60;;
72156;SDS011;60035;52.122;5.406;2023-06-22T05:00:01;19.23;;;10.70;;
72156;SDS011;60035;52.122;5.406;2023-06-22T05:02:39;20.65;;;11.73;;
72156;SDS011;60035;52.122;5.406;2023-06-22T05:05:06;16.90;;;10.45;;
72156;SDS011;60035;52.122;5.406;2023-06-22T05:07:34;19.25;;;11.35;;
72156;SDS011;60035;52.122;5.406;2023-06-22T05:10:01;20.55;;;11.85;;
72156;SDS011;60035;52.122;5.406;2023-06-22T05:12:31;19.40;;;12.00;;
72156;SDS011;60035;52.122;5.406;2023-06-22T05:14:57;24.15;;;12.75;;
72156;SDS011;60035;52.122;5.406;2023-06-22T05:17:24;23.00;;;12.95;;
72156;SDS011;60035;52.122;5.406;2023-06-22T05:19:51;25.73;;;14.07;;
72156;SDS011;60035;52.122;5.406;2023-06-22T05:22:18;24.70;;;14.40;;
72156;SDS011;60035;52.122;5.406;2023-06-22T05:24:45;23.92;;;13.25;;
72156;SDS011;60035;52.122;5.406;2023-06-22T05:27:13;25.25;;;14.27;;
72156;SDS011;60035;52.122;5.406;2023-06-22T05:29:40;26.40;;;15.63;;
72156;SDS011;60035;52.122;5.406;2023-06-22T05:32:06;27.90;;;16.17;;
72156;SDS011;60035;52.122;5.406;2023-06-22T05:34:33;26.90;;;16.42;;
72156;SDS011;60035;52.122;5.406;2023-06-22T05:37:00;29.08;;;17.27;;
72156;SDS011;60035;52.122;5.406;2023-06-22T05:39:26;30.38;;;16.40;;
72156;SDS011;60035;52.122;5.406;2023-06-22T05:41:53;24.83;;;15.98;;
72156;SDS011;60035;52.122;5.406;2023-06-22T05:44:19;27.40;;;16.20;;
72156;SDS011;60035;52.122;5.406;2023-06-22T05:46:46;27.02;;;16.42;;
72156;SDS011;60035;52.122;5.406;2023-06-22T05:49:14;26.13;;;16.77;;
72156;SDS011;60035;52.122;5.406;2023-06-22T05:51:41;25.88;;;15.60;;
72156;SDS011;60035;52.122;5.406;2023-06-22T05:54:08;28.73;;;17.33;;
72156;SDS011;60035;52.122;5.406;2023-06-22T05:56:35;28.27;;;17.17;;
72156;SDS011;60035;52.122;5.406;2023-06-22T05:59:01;30.42;;;18.13;;
72156;SDS011;60035;52.122;5.406;2023-06-22T06:01:28;26.73;;;16.65;;
72156;SDS011;60035;52.122;5.406;2023-06-22T06:03:55;31.35;;;18.98;;
72156;SDS011;60035;52.122;5.406;2023-06-22T06:06:21;30.80;;;18.73;;
72156;SDS011;60035;52.122;5.406;2023-06-22T06:08:55;30.48;;;17.70;;
72156;SDS011;60035;52.122;5.406;2023-06-22T06:11:21;28.38;;;18.65;;
72156;SDS011;60035;52.122;5.406;2023-06-22T06:13:48;27.60;;;17.80;;
72156;SDS011;60035;52.122;5.406;2023-06-22T06:16:15;28.08;;;18.33;;
72156;SDS011;60035;52.122;5.406;2023-06-22T06:18:41;24.63;;;16.50;;
72156;SDS011;60035;52.122;5.406;2023-06-22T06:21:08;25.83;;;16.48;;
72156;SDS011;60035;52.122;5.406;2023-06-22T06:23:34;29.88;;;18.17;;
72156;SDS011;60035;52.122;5.406;2023-06-22T06:26:01;27.05;;;18.17;;
72156;SDS011;60035;52.122;5.406;2023-06-22T06:28:27;27.77;;;16.65;;
72156;SDS011;60035;52.122;5.406;2023-06-22T06:30:54;26.02;;;17.67;;
72156;SDS011;60035;52.122;5.406;2023-06-22T06:33:20;28.33;;;16.08;;
72156;SDS011;60035;52.122;5.406;2023-06-22T06:35:50;25.90;;;16.92;;
72156;SDS011;60035;52.122;5.406;2023-06-22T06:38:16;29.08;;;17.08;;
72156;SDS011;60035;52.122;5.406;2023-06-22T06:40:43;26.38;;;16.40;;
72156;SDS011;60035;52.122;5.406;2023-06-22T06:43:11;25.20;;;16.42;;
72156;SDS011;60035;52.122;5.406;2023-06-22T06:45:37;27.05;;;16.50;;
72156;SDS011;60035;52.122;5.406;2023-06-22T06:48:04;26.67;;;16.83;;
72156;SDS011;60035;52.122;5.406;2023-06-22T06:50:30;24.92;;;15.35;;
72156;SDS011;60035;52.122;5.406;2023-06-22T06:52:58;26.40;;;16.35;;
72156;SDS011;60035;52.122;5.406;2023-06-22T06:55:25;23.95;;;16.27;;
72156;SDS011;60035;52.122;5.406;2023-06-22T06:57:51;26.10;;;15.93;;
72156;SDS011;60035;52.122;5.406;2023-06-22T07:00:18;27.23;;;16.25;;
72156;SDS011;60035;52.122;5.406;2023-06-22T07:02:45;25.92;;;17.48;;
72156;SDS011;60035;52.122;5.406;2023-06-22T07:05:14;27.27;;;16.92;;
72156;SDS011;60035;52.122;5.406;2023-06-22T07:07:41;24.90;;;16.73;;
72156;SDS011;60035;52.122;5.406;2023-06-22T07:10:09;23.90;;;16.25;;
72156;SDS011;60035;52.122;5.406;2023-06-22T07:12:36;24.23;;;16.50;;
72156;SDS011;60035;52.122;5.406;2023-06-22T07:15:03;22.70;;;15.23;;
72156;SDS011;60035;52.122;5.406;2023-06-22T07:17:31;23.58;;;15.93;;
72156;SDS011;60035;52.122;5.406;2023-06-22T07:19:58;28.15;;;15.95;;
72156;SDS011;60035;52.122;5.406;2023-06-22T07:22:24;22.08;;;15.43;;
72156;SDS011;60035;52.122;5.406;2023-06-22T07:24:51;21.13;;;13.93;;
72156;SDS011;60035;52.122;5.406;2023-06-22T07:27:18;19.25;;;13.73;;
72156;SDS011;60035;52.122;5.406;2023-06-22T07:29:45;21.42;;;13.70;;
72156;SDS011;60035;52.122;5.406;2023-06-22T07:32:12;21.75;;;14.48;;
72156;SDS011;60035;52.122;5.406;2023-06-22T07:34:38;20.75;;;13.15;;
72156;SDS011;60035;52.122;5.406;2023-06-22T07:37:05;19.30;;;13.93;;
72156;SDS011;60035;52.122;5.406;2023-06-22T07:39:32;20.23;;;13.63;;
72156;SDS011;60035;52.122;5.406;2023-06-22T07:41:58;22.40;;;13.55;;
72156;SDS011;60035;52.122;5.406;2023-06-22T07:44:25;20.77;;;12.45;;
72156;SDS011;60035;52.122;5.406;2023-06-22T07:46:51;18.95;;;10.98;;
72156;SDS011;60035;52.122;5.406;2023-06-22T07:49:18;19.75;;;11.63;;
72156;SDS011;60035;52.122;5.406;2023-06-22T07:51:44;18.77;;;12.10;;
72156;SDS011;60035;52.122;5.406;2023-06-22T07:54:11;19.50;;;11.77;;
72156;SDS011;60035;52.122;5.406;2023-06-22T07:56:37;20.27;;;12.73;;
72156;SDS011;60035;52.122;5.406;2023-06-22T07:59:04;18.80;;;12.73;;
72156;SDS011;60035;52.122;5.406;2023-06-22T08:01:31;18.92;;;11.90;;
72156;SDS011;60035;52.122;5.406;2023-06-22T08:03:57;18.92;;;12.23;;
72156;SDS011;60035;52.122;5.406;2023-06-22T08:06:24;17.67;;;12.88;;
72156;SDS011;60035;52.122;5.406;2023-06-22T08:08:50;18.55;;;11.60;;
72156;SDS011;60035;52.122;5.406;2023-06-22T08:11:20;18.55;;;11.70;;
72156;SDS011;60035;52.122;5.406;2023-06-22T08:13:48;20.48;;;12.57;;
72156;SDS011;60035;52.122;5.406;2023-06-22T08:16:15;16.92;;;11.20;;
72156;SDS011;60035;52.122;5.406;2023-06-22T08:18:41;17.75;;;11.93;;
72156;SDS011;60035;52.122;5.406;2023-06-22T08:21:08;19.48;;;11.93;;
72156;SDS011;60035;52.122;5.406;2023-06-22T08:23:34;15.93;;;10.35;;
72156;SDS011;60035;52.122;5.406;2023-06-22T08:26:01;21.58;;;11.82;;
72156;SDS011;60035;52.122;5.406;2023-06-22T08:28:28;16.42;;;11.65;;
72156;SDS011;60035;52.122;5.406;2023-06-22T08:30:55;16.85;;;11.77;;
72156;SDS011;60035;52.122;5.406;2023-06-22T08:33:21;16.52;;;11.70;;
72156;SDS011;60035;52.122;5.406;2023-06-22T08:35:55;16.73;;;11.07;;
72156;SDS011;60035;52.122;5.406;2023-06-22T08:38:21;15.65;;;10.43;;
72156;SDS011;60035;52.122;5.406;2023-06-22T08:40:48;14.50;;;9.88;;
72156;SDS011;60035;52.122;5.406;2023-06-22T08:43:14;15.82;;;9.65;;
72156;SDS011;60035;52.122;5.406;2023-06-22T08:45:41;15.20;;;9.85;;
72156;SDS011;60035;52.122;5.406;2023-06-22T08:48:09;13.40;;;9.02;;
72156;SDS011;60035;52.122;5.406;2023-06-22T08:50:35;12.15;;;7.07;;
72156;SDS011;60035;52.122;5.406;2023-06-22T08:53:02;12.30;;;8.23;;
72156;SDS011;60035;52.122;5.406;2023-06-22T08:55:29;13.27;;;8.13;;
72156;SDS011;60035;52.122;5.406;2023-06-22T08:57:56;12.40;;;7.65;;
72156;SDS011;60035;52.122;5.406;2023-06-22T09:00:22;14.05;;;9.07;;
72156;SDS011;60035;52.122;5.406;2023-06-22T09:02:49;13.80;;;8.05;;
72156;SDS011;60035;52.122;5.406;2023-06-22T09:05:16;15.00;;;7.50;;
72156;SDS011;60035;52.122;5.406;2023-06-22T09:07:43;13.18;;;6.32;;
72156;SDS011;60035;52.122;5.406;2023-06-22T09:10:09;12.27;;;8.57;;
72156;SDS011;60035;52.122;5.406;2023-06-22T09:12:36;12.65;;;7.47;;
72156;SDS011;60035;52.122;5.406;2023-06-22T09:15:04;10.32;;;5.20;;
72156;SDS011;60035;52.122;5.406;2023-06-22T09:17:37;11.90;;;5.78;;
72156;SDS011;60035;52.122;5.406;2023-06-22T09:20:04;8.65;;;4.57;;
72156;SDS011;60035;52.122;5.406;2023-06-22T09:22:33;8.57;;;4.35;;
72156;SDS011;60035;52.122;5.406;2023-06-22T09:24:59;8.93;;;4.82;;
72156;SDS011;60035;52.122;5.406;2023-06-22T09:27:26;8.50;;;4.93;;
72156;SDS011;60035;52.122;5.406;2023-06-22T09:29:53;9.38;;;5.90;;
72156;SDS011;60035;52.122;5.406;2023-06-22T09:32:19;9.63;;;5.70;;
72156;SDS011;60035;52.122;5.406;2023-06-22T09:34:46;9.60;;;5.05;;
72156;SDS011;60035;52.122;5.406;2023-06-22T09:37:12;9.45;;;5.60;;
72156;SDS011;60035;52.122;5.406;2023-06-22T09:39:39;9.20;;;5.50;;
72156;SDS011;60035;52.122;5.406;2023-06-22T09:42:05;12.35;;;5.90;;
72156;SDS011;60035;52.122;5.406;2023-06-22T09:44:32;10.88;;;6.07;;
72156;SDS011;60035;52.122;5.406;2023-06-22T09:46:59;8.85;;;4.80;;
72156;SDS011;60035;52.122;5.406;2023-06-22T09:49:26;8.60;;;4.40;;
72156;SDS011;60035;52.122;5.406;2023-06-22T09:52:11;9.57;;;5.45;;
72156;SDS011;60035;52.122;5.406;2023-06-22T09:54:37;8.57;;;5.25;;
72156;SDS011;60035;52.122;5.406;2023-06-22T09:57:04;9.43;;;4.47;;
72156;SDS011;60035;52.122;5.406;2023-06-22T09:59:31;8.35;;;4.85;;
72156;SDS011;60035;52.122;5.406;2023-06-22T10:01:57;9.27;;;5.63;;
72156;SDS011;60035;52.122;5.406;2023-06-22T10:04:24;12.13;;;6.03;;
72156;SDS011;60035;52.122;5.406;2023-06-22T10:06:52;10.48;;;5.78;;
72156;SDS011;60035;52.122;5.406;2023-06-22T10:09:18;9.27;;;5.47;;
72156;SDS011;60035;52.122;5.406;2023-06-22T10:11:45;8.43;;;5.85;;
72156;SDS011;60035;52.122;5.406;2023-06-22T10:14:11;10.70;;;5.90;;
72156;SDS011;60035;52.122;5.406;2023-06-22T10:16:38;9.77;;;4.80;;
72156;SDS011;60035;52.122;5.406;2023-06-22T10:19:04;9.52;;;4.72;;
72156;SDS011;60035;52.122;5.406;2023-06-22T10:21:31;8.85;;;4.47;;
72156;SDS011;60035;52.122;5.406;2023-06-22T10:24:01;7.85;;;4.28;;
72156;SDS011;60035;52.122;5.406;2023-06-22T10:26:32;8.50;;;4.53;;
72156;SDS011;60035;52.122;5.406;2023-06-22T10:28:59;8.18;;;3.75;;
72156;SDS011;60035;52.122;5.406;2023-06-22T10:31:32;7.55;;;4.18;;
72156;SDS011;60035;52.122;5.406;2023-06-22T10:33:59;10.35;;;4.38;;
72156;SDS011;60035;52.122;5.406;2023-06-22T10:36:26;9.02;;;4.53;;
72156;SDS011;60035;52.122;5.406;2023-06-22T10:38:52;9.05;;;5.15;;
72156;SDS011;60035;52.122;5.406;2023-06-22T10:41:19;8.88;;;4.70;;
72156;SDS011;60035;52.122;5.406;2023-06-22T10:43:46;8.80;;;5.00;;
72156;SDS011;60035;52.122;5.406;2023-06-22T10:46:12;10.05;;;5.18;;
72156;SDS011;60035;52.122;5.406;2023-06-22T10:48:39;11.18;;;4.75;;
72156;SDS011;60035;52.122;5.406;2023-06-22T10:51:06;8.90;;;3.95;;
72156;SDS011;60035;52.122;5.406;2023-06-22T10:53:33;9.57;;;5.18;;
72156;SDS011;60035;52.122;5.406;2023-06-22T10:55:59;8.05;;;4.57;;
72156;SDS011;60035;52.122;5.406;2023-06-22T10:58:26;8.82;;;4.30;;
72156;SDS011;60035;52.122;5.406;2023-06-22T11:00:53;10.00;;;4.70;;
72156;SDS011;60035;52.122;5.406;2023-06-22T11:03:19;8.40;;;4.70;;
72156;SDS011;60035;52.122;5.406;2023-06-22T11:05:46;9.68;;;4.85;;
72156;SDS011;60035;52.122;5.406;2023-06-22T11:08:14;10.98;;;5.63;;
72156;SDS011;60035;52.122;5.406;2023-06-22T11:10:41;13.45;;;5.72;;
72156;SDS011;60035;52.122;5.406;2023-06-22T11:13:07;12.02;;;6.15;;
72156;SDS011;60035;52.122;5.406;2023-06-22T11:15:38;11.63;;;5.60;;
72156;SDS011;60035;52.122;5.406;2023-06-22T11:18:05;9.63;;;5.45;;
72156;SDS011;60035;52.122;5.406;2023-06-22T11:20:33;10.52;;;6.15;;
72156;SDS011;60035;52.122;5.406;2023-06-22T11:23:04;10.40;;;5.68;;
72156;SDS011;60035;52.122;5.406;2023-06-22T11:25:34;9.02;;;4.97;;
72156;SDS011;60035;52.122;5.406;2023-06-22T11:28:04;9.63;;;5.43;;
72156;SDS011;60035;52.122;5.406;2023-06-22T11:30:31;11.82;;;4.93;;
72156;SDS011;60035;52.122;5.406;2023-06-22T11:32:58;10.57;;;6.38;;
72156;SDS011;60035;52.122;5.406;2023-06-22T11:35:25;13.07;;;7.15;;
72156;SDS011;60035;52.122;5.406;2023-06-22T11:37:51;11.60;;;7.20;;
72156;SDS011;60035;52.122;5.406;2023-06-22T11:40:18;11.07;;;6.40;;
72156;SDS011;60035;52.122;5.406;2023-06-22T11:42:45;12.25;;;7.75;;
72156;SDS011;60035;52.122;5.406;2023-06-22T11:45:11;11.20;;;7.55;;
72156;SDS011;60035;52.122;5.406;2023-06-22T11:47:38;11.10;;;6.10;;
72156;SDS011;60035;52.122;5.406;2023-06-22T11:50:06;13.63;;;7.40;;
72156;SDS011;60035;52.122;5.406;2023-06-22T11:52:33;11.38;;;6.72;;
72156;SDS011;60035;52.122;5.406;2023-06-22T11:55:02;15.70;;;8.60;;
72156;SDS011;60035;52.122;5.406;2023-06-22T11:57:38;11.45;;;7.82;;
72156;SDS011;60035;52.122;5.406;2023-06-22T12:00:05;12.02;;;6.93;;
72156;SDS011;60035;52.122;5.406;2023-06-22T12:02:33;14.27;;;8.98;;
72156;SDS011;60035;52.122;5.406;2023-06-22T12:05:00;13.07;;;9.05;;
72156;SDS011;60035;52.122;5.406;2023-06-22T12:07:26;14.70;;;8.88;;
72156;SDS011;60035;52.122;5.406;2023-06-22T12:09:53;14.57;;;8.95;;
72156;SDS011;60035;52.122;5.406;2023-06-22T12:12:19;13.50;;;9.20;;
72156;SDS011;60035;52.122;5.406;2023-06-22T12:14:46;13.90;;;7.53;;
72156;SDS011;60035;52.122;5.406;2023-06-22T12:17:12;13.85;;;8.88;;
72156;SDS011;60035;52.122;5.406;2023-06-22T12:19:39;14.95;;;9.48;;
72156;SDS011;60035;52.122;5.406;2023-06-22T12:22:05;15.80;;;9.70;;
72156;SDS011;60035;52.122;5.406;2023-06-22T12:24:32;15.77;;;8.75;;
72156;SDS011;60035;52.122;5.406;2023-06-22T12:26:58;15.65;;;10.25;;
72156;SDS011;60035;52.122;5.406;2023-06-22T12:29:25;14.75;;;9.15;;
72156;SDS011;60035;52.122;5.406;2023-06-22T12:31:51;13.40;;;8.93;;
72156;SDS011;60035;52.122;5.406;2023-06-22T12:34:18;15.15;;;9.90;;
72156;SDS011;60035;52.122;5.406;2023-06-22T12:36:45;14.52;;;10.18;;
72156;SDS011;60035;52.122;5.406;2023-06-22T12:39:14;15.43;;;10.20;;
72156;SDS011;60035;52.122;5.406;2023-06-22T12:41:40;16.45;;;9.65;;
72156;SDS011;60035;52.122;5.406;2023-06-22T12:44:10;14.48;;;9.50;;
72156;SDS011;60035;52.122;5.406;2023-06-22T12:46:36;15.93;;;9.20;;
72156;SDS011;60035;52.122;5.406;2023-06-22T12:49:04;14.38;;;9.00;;
72156;SDS011;60035;52.122;5.406;2023-06-22T12:51:31;14.02;;;8.73;;
72156;SDS011;60035;52.122;5.406;2023-06-22T12:53:57;18.05;;;9.77;;
72156;SDS011;60035;52.122;5.406;2023-06-22T12:56:24;14.23;;;8.68;;
72156;SDS011;60035;52.122;5.406;2023-06-22T12:58:51;13.68;;;9.38;;
72156;SDS011;60035;52.122;5.406;2023-06-22T13:01:17;15.43;;;9.73;;
72156;SDS011;60035;52.122;5.406;2023-06-22T13:03:44;11.50;;;7.90;;
72156;SDS011;60035;52.122;5.406;2023-06-22T13:06:11;14.48;;;8.57;;
72156;SDS011;60035;52.122;5.406;2023-06-22T13:08:37;11.38;;;7.65;;
72156;SDS011;60035;52.122;5.406;2023-06-22T13:11:07;13.32;;;8.20;;
72156;SDS011;60035;52.122;5.406;2023-06-22T13:13:33;16.02;;;9.30;;
72156;SDS011;60035;52.122;5.406;2023-06-22T13:16:00;12.73;;;8.25;;
72156;SDS011;60035;52.122;5.406;2023-06-22T13:18:27;11.20;;;7.15;;
72156;SDS011;60035;52.122;5.406;2023-06-22T13:20:54;12.23;;;7.47;;
72156;SDS011;60035;52.122;5.406;2023-06-22T13:23:21;12.73;;;8.40;;
72156;SDS011;60035;52.122;5.406;2023-06-22T13:25:47;15.00;;;7.75;;
72156;SDS011;60035;52.122;5.406;2023-06-22T13:28:14;13.70;;;9.15;;
72156;SDS011;60035;52.122;5.406;2023-06-22T13:30:53;14.15;;;8.60;;
72156;SDS011;60035;52.122;5.406;2023-06-22T13:33:20;13.02;;;8.82;;
72156;SDS011;60035;52.122;5.406;2023-06-22T13:35:46;18.05;;;9.30;;
72156;SDS011;60035;52.122;5.406;2023-06-22T13:38:13;14.40;;;9.07;;
72156;SDS011;60035;52.122;5.406;2023-06-22T13:40:40;15.32;;;8.80;;
72156;SDS011;60035;52.122;5.406;2023-06-22T13:43:06;14.90;;;9.20;;
72156;SDS011;60035;52.122;5.406;2023-06-22T13:45:33;15.43;;;9.60;;
72156;SDS011;60035;52.122;5.406;2023-06-22T13:47:59;15.27;;;9.18;;
72156;SDS011;60035;52.122;5.406;2023-06-22T13:50:26;14.90;;;9.02;;
72156;SDS011;60035;52.122;5.406;2023-06-22T13:52:53;16.00;;;9.88;;
72156;SDS011;60035;52.122;5.406;2023-06-22T13:55:19;13.80;;;9.25;;
72156;SDS011;60035;52.122;5.406;2023-06-22T13:57:47;13.35;;;9.52;;
72156;SDS011;60035;52.122;5.406;2023-06-22T14:00:14;13.70;;;9.65;;
72156;SDS011;60035;52.122;5.406;2023-06-22T14:02:41;14.75;;;8.93;;
72156;SDS011;60035;52.122;5.406;2023-06-22T14:05:07;14.60;;;9.77;;
72156;SDS011;60035;52.122;5.406;2023-06-22T14:07:34;14.57;;;8.95;;
72156;SDS011;60035;52.122;5.406;2023-06-22T14:10:01;15.45;;;9.02;;
72156;SDS011;60035;52.122;5.406;2023-06-22T14:12:28;15.18;;;10.07;;
72156;SDS011;60035;52.122;5.406;2023-06-22T14:14:54;17.77;;;10.93;;
72156;SDS011;60035;52.122;5.406;2023-06-22T14:17:21;15.40;;;9.00;;
72156;SDS011;60035;52.122;5.406;2023-06-22T14:19:52;17.27;;;10.73;;
72156;SDS011;60035;52.122;5.406;2023-06-22T14:22:19;15.27;;;9.98;;
72156;SDS011;60035;52.122;5.406;2023-06-22T14:24:47;14.30;;;9.68;;
72156;SDS011;60035;52.122;5.406;2023-06-22T14:27:14;15.25;;;11.10;;
72156;SDS011;60035;52.122;5.406;2023-06-22T14:29:41;15.18;;;8.77;;
72156;SDS011;60035;52.122;5.406;2023-06-22T14:32:09;16.83;;;10.60;;
72156;SDS011;60035;52.122;5.406;2023-06-22T14:34:35;16.80;;;10.25;;
72156;SDS011;60035;52.122;5.406;2023-06-22T14:37:06;18.65;;;10.80;;
72156;SDS011;60035;52.122;5.406;2023-06-22T14:39:33;19.25;;;10.77;;
72156;SDS011;60035;52.122;5.406;2023-06-22T14:41:59;15.90;;;10.05;;
72156;SDS011;60035;52.122;5.406;2023-06-22T14:44:26;16.58;;;10.75;;
72156;SDS011;60035;52.122;5.406;2023-06-22T14:46:55;15.70;;;10.02;;
72156;SDS011;60035;52.122;5.406;2023-06-22T14:49:22;17.75;;;11.93;;
72156;SDS011;60035;52.122;5.406;2023-06-22T14:51:49;14.55;;;10.02;;
72156;SDS011;60035;52.122;5.406;2023-06-22T14:54:15;16.40;;;11.10;;